PWSweather.com
Personal Weather Stations
Station Observations
KMIEASTT1
Tawas Bay, East Tawas, MI 48730

Tawas BayEast Tawas, MI 48730

Lat: 44.28, Lon: -83.48

Elevation: 600

Station Type: Davis VantagePro

http://www.tawasbayweather.com

High Low Average
Temperature 46.5°F8.1°C 29.5°F-1.4°C 38.9°F3.8°C
Dew Point 35.5°F1.9°C 21.0°F-6.1°C 28.5°F-1.9°C
Winds 26.0 mph 41.8 kmh Calm Calm 7.0 mph W11.3 kmh W
Wind Gusts 30.0 mph48.3 kmh -- 12.0 mph19.3 kmh
Humidity 90% 43% 68%
Pressure 29.98 in1015.2 mb 29.64 in1003.7 mb -
Precipitation 0.00 in0.0 mm - -
Hour Temp Dew Point Humidity Winds Wind Gusts Pressure Precip Precip Rate Daily Precip Total
12:00 AM 35.9°F2.2°C 34.6°F1.4°C 95% 11.0 mph NW17.7 kmh NW 20.0 mph32.2 kmh 29.64 in1003.7 mb 0.00 in0.0 mm 0.00 in0.0 mm 0.00 in0.0 mm
12:15 AM 36.2°F2.3°C 34.9°F1.6°C 95% 15.0 mph NNE24.1 kmh NNE 21.0 mph33.8 kmh 29.64 in1003.7 mb 0.00 in0.0 mm 0.00 in0.0 mm 0.00 in0.0 mm
12:30 AM 36.8°F2.7°C 35.2°F1.8°C 94% 13.0 mph NE20.9 kmh NE 18.0 mph29.0 kmh 29.64 in1003.7 mb 0.00 in0.0 mm 0.00 in0.0 mm 0.00 in0.0 mm
12:45 AM 37.2°F2.9°C 35.1°F1.7°C 92% 12.0 mph NE19.3 kmh NE 19.0 mph30.6 kmh 29.64 in1003.7 mb 0.00 in0.0 mm 0.00 in0.0 mm 0.00 in0.0 mm
01:00 AM 37.5°F3.1°C 34.8°F1.6°C 90% 15.0 mph E24.1 kmh E 17.0 mph27.4 kmh 29.64 in1003.7 mb 0.00 in0.0 mm 0.00 in0.0 mm 0.00 in0.0 mm
01:15 AM 37.7°F3.2°C 35.0°F1.7°C 90% 11.0 mph ENE17.7 kmh ENE 17.0 mph27.4 kmh 29.65 in1004.1 mb 0.00 in0.0 mm 0.00 in0.0 mm 0.00 in0.0 mm
01:30 AM 38.0°F3.3°C 34.8°F1.6°C 88% 16.0 mph ENE25.7 kmh ENE 22.0 mph35.4 kmh 29.65 in1004.1 mb 0.00 in0.0 mm 0.00 in0.0 mm 0.00 in0.0 mm
01:45 AM 38.4°F3.6°C 34.6°F1.4°C 86% 22.0 mph E35.4 kmh E 28.0 mph45.1 kmh 29.66 in1004.4 mb 0.00 in0.0 mm 0.00 in0.0 mm 0.00 in0.0 mm
02:00 AM 38.5°F3.6°C 34.1°F1.2°C 84% 26.0 mph E41.8 kmh E 30.0 mph48.3 kmh 29.67 in1004.7 mb 0.00 in0.0 mm 0.00 in0.0 mm 0.00 in0.0 mm
02:15 AM 38.6°F3.7°C 33.9°F1.1°C 83% 20.0 mph E32.2 kmh E 26.0 mph41.8 kmh 29.68 in1005.1 mb 0.00 in0.0 mm 0.00 in0.0 mm 0.00 in0.0 mm
02:30 AM 38.5°F3.6°C 33.5°F0.8°C 82% 19.0 mph E30.6 kmh E 26.0 mph41.8 kmh 29.69 in1005.4 mb 0.00 in0.0 mm 0.00 in0.0 mm 0.00 in0.0 mm
02:45 AM 37.3°F2.9°C 32.3°F0.2°C 82% 3.0 mph NW4.8 kmh NW 15.0 mph24.1 kmh 29.69 in1005.4 mb 0.00 in0.0 mm 0.00 in0.0 mm 0.00 in0.0 mm
03:00 AM 36.9°F2.7°C 32.2°F0.1°C 83% 14.0 mph W22.5 kmh W 19.0 mph30.6 kmh 29.70 in1005.8 mb 0.00 in0.0 mm 0.00 in0.0 mm 0.00 in0.0 mm
03:15 AM 36.6°F2.6°C 31.9°F-0.1°C 83% 8.0 mph WNW12.9 kmh WNW 16.0 mph25.7 kmh 29.71 in1006.1 mb 0.00 in0.0 mm 0.00 in0.0 mm 0.00 in0.0 mm
03:30 AM 36.4°F2.4°C 32.0°F0.0°C 84% 4.0 mph NW6.4 kmh NW 15.0 mph24.1 kmh 29.71 in1006.1 mb 0.00 in0.0 mm 0.00 in0.0 mm 0.00 in0.0 mm
03:45 AM 36.1°F2.3°C 32.0°F0.0°C 85% 7.0 mph WNW11.3 kmh WNW 13.0 mph20.9 kmh 29.71 in1006.1 mb 0.00 in0.0 mm 0.00 in0.0 mm 0.00 in0.0 mm
04:00 AM 36.4°F2.4°C 32.6°F0.3°C 86% 8.0 mph W12.9 kmh W 15.0 mph24.1 kmh 29.72 in1006.4 mb 0.00 in0.0 mm 0.00 in0.0 mm 0.00 in0.0 mm
04:15 AM 36.3°F2.4°C 32.2°F0.1°C 85% 9.0 mph WNW14.5 kmh WNW 16.0 mph25.7 kmh 29.72 in1006.4 mb 0.00 in0.0 mm 0.00 in0.0 mm 0.00 in0.0 mm
04:30 AM 36.4°F2.4°C 32.0°F0.0°C 84% 9.0 mph WNW14.5 kmh WNW 14.0 mph22.5 kmh 29.73 in1006.8 mb 0.00 in0.0 mm 0.00 in0.0 mm 0.00 in0.0 mm
04:45 AM 36.3°F2.4°C 31.9°F-0.1°C 84% 12.0 mph WNW19.3 kmh WNW 13.0 mph20.9 kmh 29.73 in1006.8 mb 0.00 in0.0 mm 0.00 in0.0 mm 0.00 in0.0 mm
05:00 AM 36.3°F2.4°C 31.9°F-0.1°C 84% 8.0 mph WNW12.9 kmh WNW 17.0 mph27.4 kmh 29.74 in1007.1 mb 0.00 in0.0 mm 0.00 in0.0 mm 0.00 in0.0 mm
05:15 AM 36.3°F2.4°C 31.9°F-0.1°C 84% 7.0 mph NW11.3 kmh NW 13.0 mph20.9 kmh 29.75 in1007.5 mb 0.00 in0.0 mm 0.00 in0.0 mm 0.00 in0.0 mm
05:30 AM 36.4°F2.4°C 32.0°F0.0°C 84% 10.0 mph WSW16.1 kmh WSW 14.0 mph22.5 kmh 29.75 in1007.5 mb 0.00 in0.0 mm 0.00 in0.0 mm 0.00 in0.0 mm
05:45 AM 36.2°F2.3°C 32.1°F0.1°C 85% 5.0 mph W8.0 kmh W 14.0 mph22.5 kmh 29.75 in1007.5 mb 0.00 in0.0 mm 0.00 in0.0 mm 0.00 in0.0 mm
06:00 AM 35.9°F2.2°C 31.8°F-0.1°C 85% 9.0 mph WNW14.5 kmh WNW 13.0 mph20.9 kmh 29.76 in1007.8 mb 0.00 in0.0 mm 0.00 in0.0 mm 0.00 in0.0 mm
06:15 AM 35.8°F2.1°C 31.5°F-0.3°C 84% 4.0 mph NW6.4 kmh NW 13.0 mph20.9 kmh 29.77 in1008.1 mb 0.00 in0.0 mm 0.00 in0.0 mm 0.00 in0.0 mm
06:30 AM 35.9°F2.2°C 31.6°F-0.2°C 84% 3.0 mph WNW4.8 kmh WNW 10.0 mph16.1 kmh 29.78 in1008.5 mb 0.00 in0.0 mm 0.00 in0.0 mm 0.00 in0.0 mm
06:45 AM 36.4°F2.4°C 31.4°F-0.3°C 82% 8.0 mph NW12.9 kmh NW 10.0 mph16.1 kmh 29.79 in1008.8 mb 0.00 in0.0 mm 0.00 in0.0 mm 0.00 in0.0 mm
07:00 AM 36.7°F2.6°C 31.4°F-0.3°C 81% 3.0 mph NW4.8 kmh NW 11.0 mph17.7 kmh 29.78 in1008.5 mb 0.00 in0.0 mm 0.00 in0.0 mm 0.00 in0.0 mm
07:15 AM 37.8°F3.2°C 32.5°F0.3°C 81% 16.0 mph E25.7 kmh E 16.0 mph25.7 kmh 29.78 in1008.5 mb 0.00 in0.0 mm 0.00 in0.0 mm 0.00 in0.0 mm
07:30 AM 37.8°F3.2°C 32.5°F0.3°C 81% 15.0 mph E24.1 kmh E 22.0 mph35.4 kmh 29.79 in1008.8 mb 0.00 in0.0 mm 0.00 in0.0 mm 0.00 in0.0 mm
07:45 AM 36.5°F2.5°C 31.2°F-0.4°C 81% 5.0 mph WNW8.0 kmh WNW 12.0 mph19.3 kmh 29.79 in1008.8 mb 0.00 in0.0 mm 0.00 in0.0 mm 0.00 in0.0 mm
08:00 AM 36.2°F2.3°C 31.2°F-0.4°C 82% 4.0 mph W6.4 kmh W 11.0 mph17.7 kmh 29.80 in1009.1 mb 0.00 in0.0 mm 0.00 in0.0 mm 0.00 in0.0 mm
08:15 AM 36.3°F2.4°C 31.3°F-0.4°C 82% 9.0 mph WSW14.5 kmh WSW 11.0 mph17.7 kmh 29.80 in1009.1 mb 0.00 in0.0 mm 0.00 in0.0 mm 0.00 in0.0 mm
08:30 AM 36.3°F2.4°C 31.6°F-0.2°C 83% 6.0 mph WSW9.7 kmh WSW 12.0 mph19.3 kmh 29.80 in1009.1 mb 0.00 in0.0 mm 0.00 in0.0 mm 0.00 in0.0 mm
08:45 AM 36.9°F2.7°C 31.9°F-0.1°C 82% 6.0 mph WSW9.7 kmh WSW 9.0 mph14.5 kmh 29.81 in1009.5 mb 0.00 in0.0 mm 0.00 in0.0 mm 0.00 in0.0 mm
09:00 AM 37.3°F2.9°C 31.7°F-0.2°C 80% 10.0 mph WSW16.1 kmh WSW 16.0 mph25.7 kmh 29.81 in1009.5 mb 0.00 in0.0 mm 0.00 in0.0 mm 0.00 in0.0 mm
09:15 AM 37.8°F3.2°C 32.2°F0.1°C 80% 11.0 mph WSW17.7 kmh WSW 13.0 mph20.9 kmh 29.81 in1009.5 mb 0.00 in0.0 mm 0.00 in0.0 mm 0.00 in0.0 mm
09:30 AM 38.7°F3.7°C 32.1°F0.1°C 77% 8.0 mph WSW12.9 kmh WSW 16.0 mph25.7 kmh 29.82 in1009.8 mb 0.00 in0.0 mm 0.00 in0.0 mm 0.00 in0.0 mm
09:45 AM 39.4°F4.1°C 32.2°F0.1°C 75% 8.0 mph W12.9 kmh W 15.0 mph24.1 kmh 29.82 in1009.8 mb 0.00 in0.0 mm 0.00 in0.0 mm 0.00 in0.0 mm
10:00 AM 39.8°F4.3°C 31.9°F-0.1°C 73% 7.0 mph WNW11.3 kmh WNW 13.0 mph20.9 kmh 29.82 in1009.8 mb 0.00 in0.0 mm 0.00 in0.0 mm 0.00 in0.0 mm
10:15 AM 40.3°F4.6°C 32.0°F0.0°C 72% 13.0 mph W20.9 kmh W 16.0 mph25.7 kmh 29.82 in1009.8 mb 0.00 in0.0 mm 0.00 in0.0 mm 0.00 in0.0 mm
10:30 AM 40.2°F4.6°C 32.6°F0.3°C 74% 16.0 mph NW25.7 kmh NW 20.0 mph32.2 kmh 29.83 in1010.2 mb 0.00 in0.0 mm 0.00 in0.0 mm 0.00 in0.0 mm
10:45 AM 38.2°F3.4°C 33.5°F0.8°C 83% 10.0 mph WNW16.1 kmh WNW 10.0 mph16.1 kmh 29.84 in1010.5 mb 0.00 in0.0 mm 0.00 in0.0 mm 0.00 in0.0 mm
11:00 AM 38.4°F3.6°C 34.3°F1.3°C 85% 7.0 mph NW11.3 kmh NW 17.0 mph27.4 kmh 29.85 in1010.8 mb 0.00 in0.0 mm 0.00 in0.0 mm 0.00 in0.0 mm
11:15 AM 39.3°F4.1°C 35.5°F1.9°C 86% 7.0 mph NW11.3 kmh NW 11.0 mph17.7 kmh 29.85 in1010.8 mb 0.00 in0.0 mm 0.00 in0.0 mm 0.00 in0.0 mm
11:30 AM 40.4°F4.7°C 34.7°F1.5°C 80% 4.0 mph NNW6.4 kmh NNW 16.0 mph25.7 kmh 29.85 in1010.8 mb 0.00 in0.0 mm 0.00 in0.0 mm 0.00 in0.0 mm
11:45 AM 41.8°F5.4°C 34.1°F1.2°C 74% 4.0 mph NW6.4 kmh NW 20.0 mph32.2 kmh 29.85 in1010.8 mb 0.00 in0.0 mm 0.00 in0.0 mm 0.00 in0.0 mm
12:00 PM 37.4°F3.0°C 32.7°F0.4°C 83% 5.0 mph WNW8.0 kmh WNW 17.0 mph27.4 kmh 29.86 in1011.2 mb 0.01 in0.3 mm 0.01 in0.3 mm 0.01 in0.3 mm
12:15 PM 40.7°F4.8°C 34.1°F1.2°C 77% 11.0 mph NW17.7 kmh NW 14.0 mph22.5 kmh 29.86 in1011.2 mb 0.01 in0.3 mm 0.00 in0.0 mm 0.01 in0.3 mm
12:30 PM 41.8°F5.4°C 32.8°F0.4°C 70% 12.0 mph NW19.3 kmh NW 20.0 mph32.2 kmh 29.86 in1011.2 mb 0.01 in0.3 mm 0.00 in0.0 mm 0.01 in0.3 mm
12:45 PM 42.6°F5.9°C 30.1°F-1.1°C 61% 7.0 mph NW11.3 kmh NW 23.0 mph37.0 kmh 29.86 in1011.2 mb 0.01 in0.3 mm 0.00 in0.0 mm 0.01 in0.3 mm
01:00 PM 42.2°F5.7°C 28.9°F-1.7°C 59% 14.0 mph WNW22.5 kmh WNW 21.0 mph33.8 kmh 29.87 in1011.5 mb 0.01 in0.3 mm 0.00 in0.0 mm 0.01 in0.3 mm
01:15 PM 43.0°F6.1°C 29.3°F-1.5°C 58% 9.0 mph NW14.5 kmh NW 19.0 mph30.6 kmh 29.87 in1011.5 mb 0.00 in0.0 mm 0.00 in0.0 mm 0.01 in0.3 mm
01:30 PM 45.0°F7.2°C 30.7°F-0.7°C 57% 9.0 mph WNW14.5 kmh WNW 14.0 mph22.5 kmh 29.88 in1011.9 mb 0.00 in0.0 mm 0.00 in0.0 mm 0.01 in0.3 mm
01:45 PM 43.4°F6.3°C 27.9°F-2.3°C 54% 12.0 mph NW19.3 kmh NW 14.0 mph22.5 kmh 29.88 in1011.9 mb 0.00 in0.0 mm 0.00 in0.0 mm 0.01 in0.3 mm
02:00 PM 44.8°F7.1°C 27.3°F-2.6°C 50% 13.0 mph W20.9 kmh W 18.0 mph29.0 kmh 29.88 in1011.9 mb 0.00 in0.0 mm 0.00 in0.0 mm 0.01 in0.3 mm
02:15 PM 45.8°F7.7°C 27.2°F-2.7°C 48% 6.0 mph NW9.7 kmh NW 16.0 mph25.7 kmh 29.88 in1011.9 mb 0.00 in0.0 mm 0.00 in0.0 mm 0.01 in0.3 mm
02:30 PM 44.6°F7.0°C 25.6°F-3.6°C 47% 13.0 mph WNW20.9 kmh WNW 15.0 mph24.1 kmh 29.89 in1012.2 mb 0.00 in0.0 mm 0.00 in0.0 mm 0.01 in0.3 mm
02:45 PM 44.8°F7.1°C 26.3°F-3.2°C 48% 20.0 mph WNW32.2 kmh WNW 20.0 mph32.2 kmh 29.88 in1011.9 mb 0.00 in0.0 mm 0.00 in0.0 mm 0.01 in0.3 mm
03:00 PM 46.5°F8.1°C 26.9°F-2.8°C 46% 10.0 mph NW16.1 kmh NW 13.0 mph20.9 kmh 29.89 in1012.2 mb 0.00 in0.0 mm 0.00 in0.0 mm 0.01 in0.3 mm
03:15 PM 45.1°F7.3°C 27.1°F-2.7°C 49% 8.0 mph NW12.9 kmh NW 12.0 mph19.3 kmh 29.89 in1012.2 mb 0.00 in0.0 mm 0.00 in0.0 mm 0.01 in0.3 mm
03:30 PM 45.8°F7.7°C 27.2°F-2.7°C 48% 8.0 mph WNW12.9 kmh WNW 12.0 mph19.3 kmh 29.90 in1012.5 mb 0.00 in0.0 mm 0.00 in0.0 mm 0.01 in0.3 mm
03:45 PM 44.6°F7.0°C 26.1°F-3.3°C 48% 9.0 mph NNW14.5 kmh NNW 16.0 mph25.7 kmh 29.91 in1012.9 mb 0.00 in0.0 mm 0.00 in0.0 mm 0.01 in0.3 mm
04:00 PM 44.7°F7.1°C 26.7°F-2.9°C 49% 8.0 mph NW12.9 kmh NW 16.0 mph25.7 kmh 29.91 in1012.9 mb 0.00 in0.0 mm 0.00 in0.0 mm 0.01 in0.3 mm
04:15 PM 44.6°F7.0°C 26.1°F-3.3°C 48% 5.0 mph NW8.0 kmh NW 15.0 mph24.1 kmh 29.91 in1012.9 mb 0.00 in0.0 mm 0.00 in0.0 mm 0.01 in0.3 mm
04:30 PM 44.1°F6.7°C 25.7°F-3.5°C 48% 5.0 mph NW8.0 kmh NW 17.0 mph27.4 kmh 29.92 in1013.2 mb 0.00 in0.0 mm 0.00 in0.0 mm 0.01 in0.3 mm
04:45 PM 46.1°F7.8°C 25.4°F-3.7°C 44% 10.0 mph W16.1 kmh W 18.0 mph29.0 kmh 29.92 in1013.2 mb 0.00 in0.0 mm 0.00 in0.0 mm 0.01 in0.3 mm
05:00 PM 45.1°F7.3°C 25.6°F-3.6°C 46% 11.0 mph NW17.7 kmh NW 16.0 mph25.7 kmh 29.93 in1013.5 mb 0.00 in0.0 mm 0.00 in0.0 mm 0.01 in0.3 mm
05:15 PM 45.1°F7.3°C 25.6°F-3.6°C 46% 8.0 mph NW12.9 kmh NW 14.0 mph22.5 kmh 29.93 in1013.5 mb 0.00 in0.0 mm 0.00 in0.0 mm 0.01 in0.3 mm
05:30 PM 44.6°F7.0°C 25.1°F-3.8°C 46% 9.0 mph W14.5 kmh W 17.0 mph27.4 kmh 29.93 in1013.5 mb 0.00 in0.0 mm 0.00 in0.0 mm 0.01 in0.3 mm
05:45 PM 45.8°F7.7°C 26.2°F-3.2°C 46% 7.0 mph NNW11.3 kmh NNW 15.0 mph24.1 kmh 29.93 in1013.5 mb 0.00 in0.0 mm 0.00 in0.0 mm 0.01 in0.3 mm
06:00 PM 45.4°F7.4°C 25.3°F-3.7°C 45% 6.0 mph NW9.7 kmh NW 19.0 mph30.6 kmh 29.93 in1013.5 mb 0.00 in0.0 mm 0.00 in0.0 mm 0.01 in0.3 mm
06:15 PM 44.7°F7.1°C 24.7°F-4.1°C 45% 6.0 mph N9.7 kmh N 15.0 mph24.1 kmh 29.94 in1013.9 mb 0.00 in0.0 mm 0.00 in0.0 mm 0.01 in0.3 mm
06:30 PM 44.7°F7.1°C 24.7°F-4.1°C 45% 8.0 mph NW12.9 kmh NW 12.0 mph19.3 kmh 29.94 in1013.9 mb 0.00 in0.0 mm 0.00 in0.0 mm 0.01 in0.3 mm
06:45 PM 44.5°F6.9°C 24.5°F-4.2°C 45% 6.0 mph NW9.7 kmh NW 11.0 mph17.7 kmh 29.95 in1014.2 mb 0.00 in0.0 mm 0.00 in0.0 mm 0.01 in0.3 mm
07:00 PM 43.9°F6.6°C 23.4°F-4.8°C 44% 7.0 mph NW11.3 kmh NW 11.0 mph17.7 kmh 29.95 in1014.2 mb 0.00 in0.0 mm 0.00 in0.0 mm 0.01 in0.3 mm
07:15 PM 43.4°F6.3°C 22.4°F-5.3°C 43% 1.0 mph NW1.6 kmh NW 9.0 mph14.5 kmh 29.95 in1014.2 mb 0.00 in0.0 mm 0.00 in0.0 mm 0.01 in0.3 mm
07:30 PM 42.4°F5.8°C 22.6°F-5.2°C 45% 5.0 mph NNW8.0 kmh NNW 6.0 mph9.7 kmh 29.95 in1014.2 mb 0.00 in0.0 mm 0.00 in0.0 mm 0.01 in0.3 mm
07:45 PM 41.2°F5.1°C 22.5°F-5.3°C 47% 3.0 mph NW4.8 kmh NW 9.0 mph14.5 kmh 29.95 in1014.2 mb 0.00 in0.0 mm 0.00 in0.0 mm 0.01 in0.3 mm
08:00 PM 40.4°F4.7°C 22.3°F-5.4°C 48% 1.0 mph NW1.6 kmh NW 5.0 mph8.0 kmh 29.95 in1014.2 mb 0.00 in0.0 mm 0.00 in0.0 mm 0.01 in0.3 mm
08:15 PM 39.6°F4.2°C 22.0°F-5.6°C 49% Calm Calm -- 29.95 in1014.2 mb 0.00 in0.0 mm 0.00 in0.0 mm 0.01 in0.3 mm
08:30 PM 39.1°F3.9°C 22.1°F-5.5°C 50% Calm Calm -- 29.95 in1014.2 mb 0.00 in0.0 mm 0.00 in0.0 mm 0.01 in0.3 mm
08:45 PM 38.2°F3.4°C 22.1°F-5.5°C 52% Calm Calm -- 29.96 in1014.6 mb 0.00 in0.0 mm 0.00 in0.0 mm 0.01 in0.3 mm
09:00 PM 36.6°F2.6°C 22.0°F-5.6°C 55% Calm Calm 1.0 mph1.6 kmh 29.96 in1014.6 mb 0.00 in0.0 mm 0.00 in0.0 mm 0.01 in0.3 mm
09:15 PM 35.2°F1.8°C 21.1°F-6.1°C 56% Calm Calm -- 29.97 in1014.9 mb 0.00 in0.0 mm 0.00 in0.0 mm 0.01 in0.3 mm
09:30 PM 35.1°F1.7°C 21.0°F-6.1°C 56% Calm Calm -- 29.98 in1015.2 mb 0.00 in0.0 mm 0.00 in0.0 mm 0.01 in0.3 mm
09:45 PM 35.0°F1.7°C 21.7°F-5.7°C 58% Calm Calm 1.0 mph1.6 kmh 29.98 in1015.2 mb 0.00 in0.0 mm 0.00 in0.0 mm 0.01 in0.3 mm
10:00 PM 34.1°F1.2°C 22.8°F-5.1°C 63% Calm Calm -- 29.98 in1015.2 mb 0.00 in0.0 mm 0.00 in0.0 mm 0.01 in0.3 mm
10:15 PM 32.8°F0.4°C 22.0°F-5.6°C 64% Calm Calm -- 29.97 in1014.9 mb 0.00 in0.0 mm 0.00 in0.0 mm 0.01 in0.3 mm
10:30 PM 32.3°F0.2°C 21.9°F-5.6°C 65% Calm Calm 1.0 mph1.6 kmh 29.97 in1014.9 mb 0.00 in0.0 mm 0.00 in0.0 mm 0.01 in0.3 mm
10:45 PM 31.3°F-0.4°C 21.6°F-5.8°C 67% Calm Calm -- 29.97 in1014.9 mb 0.00 in0.0 mm 0.00 in0.0 mm 0.01 in0.3 mm
11:00 PM 31.3°F-0.4°C 22.7°F-5.2°C 70% Calm Calm 1.0 mph1.6 kmh 29.96 in1014.6 mb 0.00 in0.0 mm 0.00 in0.0 mm 0.01 in0.3 mm
11:15 PM 31.0°F-0.6°C 21.7°F-5.7°C 68% 1.0 mph W1.6 kmh W 2.0 mph3.2 kmh 29.96 in1014.6 mb 0.00 in0.0 mm 0.00 in0.0 mm 0.01 in0.3 mm
11:30 PM 30.7°F-0.7°C 22.4°F-5.3°C 71% 1.0 mph W1.6 kmh W 1.0 mph1.6 kmh 29.95 in1014.2 mb 0.00 in0.0 mm 0.00 in0.0 mm 0.01 in0.3 mm
11:45 PM 30.5°F-0.8°C 23.2°F-4.9°C 74% 1.0 mph W1.6 kmh W 2.0 mph3.2 kmh 29.95 in1014.2 mb 0.00 in0.0 mm 0.00 in0.0 mm 0.01 in0.3 mm